Hilltop Mall, California
Current Conditions -  °F | °C
As of 4:53 PM on Wednesday 26 Nov 2014 (Local Time) from KCCR Reporting Station
Haze Haze  
Wind Chill: 62°   Ceiling: Unl
Heat Index: 62°   Visibility: 6mi
Dew Point: 48°   Wind: 5mph
Humidity: 60%   Direction: 50°NE
Pressure: 30.22"   Gusts: NA
Location:  37.979°N, 122.336°W
Report Text: KCCR 270053Z 05004KT 6SM HZ CLR 17/09 A3022 RMK AO2 SLP219 T01670089
Loading
Personal Weather Stations






























Interactive Weather Map New forecast layout! Learn more

10-Day Weather Forecast

Advertisements
Track Severe Weather on mobile